Terminal Aerodrome Forecast
Issued by NWS

Home | Current Version | Previous Version | Text Only | Print | Product List | Glossary On
Versions: 1 2 3 4 5 6 7 8 9 10 11 12 13 14
000
FTUS46 KOTX 280521
TAFCOE
TAF
KCOE 280521Z 2806/2906 17006KT P6SM SCT200
     FM281500 20009KT P6SM FEW200
     FM282000 24011KT P6SM FEW070 SCT150
     FM290100 21006KT P6SM VCSH SCT070 BKN100=

USA.gov is the U.S. government's official web portal to all federal, state and local government web resources and services.